sensor_id;sensor_type;location;lat;lon;timestamp;P1;durP1;ratioP1;P2;durP2;ratioP2
16401;SDS011;8310;44.626;11.176;2022-10-16T00:01:25;14.18;;;12.88;;
16401;SDS011;8310;44.626;11.176;2022-10-16T00:03:54;16.05;;;12.93;;
16401;SDS011;8310;44.626;11.176;2022-10-16T00:06:22;14.57;;;12.65;;
16401;SDS011;8310;44.626;11.176;2022-10-16T00:08:50;13.95;;;12.45;;
16401;SDS011;8310;44.626;11.176;2022-10-16T00:11:20;18.58;;;12.98;;
16401;SDS011;8310;44.626;11.176;2022-10-16T00:13:50;14.77;;;13.05;;
16401;SDS011;8310;44.626;11.176;2022-10-16T00:16:19;13.98;;;12.57;;
16401;SDS011;8310;44.626;11.176;2022-10-16T00:18:46;13.45;;;12.00;;
16401;SDS011;8310;44.626;11.176;2022-10-16T00:21:15;14.43;;;12.25;;
16401;SDS011;8310;44.626;11.176;2022-10-16T00:23:43;14.85;;;12.18;;
16401;SDS011;8310;44.626;11.176;2022-10-16T00:26:13;15.88;;;13.05;;
16401;SDS011;8310;44.626;11.176;2022-10-16T00:28:44;15.85;;;14.25;;
16401;SDS011;8310;44.626;11.176;2022-10-16T00:31:12;15.95;;;13.05;;
16401;SDS011;8310;44.626;11.176;2022-10-16T00:33:40;16.38;;;12.75;;
16401;SDS011;8310;44.626;11.176;2022-10-16T00:36:09;13.75;;;11.27;;
16401;SDS011;8310;44.626;11.176;2022-10-16T00:38:38;12.68;;;11.38;;
16401;SDS011;8310;44.626;11.176;2022-10-16T00:41:06;14.05;;;11.20;;
16401;SDS011;8310;44.626;11.176;2022-10-16T00:43:38;13.15;;;10.68;;
16401;SDS011;8310;44.626;11.176;2022-10-16T00:46:19;11.88;;;10.68;;
16401;SDS011;8310;44.626;11.176;2022-10-16T00:48:50;13.40;;;11.93;;
16401;SDS011;8310;44.626;11.176;2022-10-16T00:51:22;12.57;;;10.63;;
16401;SDS011;8310;44.626;11.176;2022-10-16T00:53:52;11.95;;;10.57;;
16401;SDS011;8310;44.626;11.176;2022-10-16T00:56:19;13.73;;;10.82;;
16401;SDS011;8310;44.626;11.176;2022-10-16T00:58:47;14.82;;;11.32;;
16401;SDS011;8310;44.626;11.176;2022-10-16T01:01:17;13.65;;;11.20;;
16401;SDS011;8310;44.626;11.176;2022-10-16T01:03:45;13.10;;;11.88;;
16401;SDS011;8310;44.626;11.176;2022-10-16T01:06:18;14.50;;;13.02;;
16401;SDS011;8310;44.626;11.176;2022-10-16T01:08:57;14.68;;;12.82;;
16401;SDS011;8310;44.626;11.176;2022-10-16T01:11:35;14.38;;;12.93;;
16401;SDS011;8310;44.626;11.176;2022-10-16T01:14:22;14.10;;;12.45;;
16401;SDS011;8310;44.626;11.176;2022-10-16T01:16:57;13.30;;;11.95;;
16401;SDS011;8310;44.626;11.176;2022-10-16T01:19:36;14.35;;;12.45;;
16401;SDS011;8310;44.626;11.176;2022-10-16T01:22:12;14.25;;;12.77;;
16401;SDS011;8310;44.626;11.176;2022-10-16T01:24:40;13.68;;;12.27;;
16401;SDS011;8310;44.626;11.176;2022-10-16T01:27:13;14.05;;;12.10;;
16401;SDS011;8310;44.626;11.176;2022-10-16T01:29:49;18.20;;;14.95;;
16401;SDS011;8310;44.626;11.176;2022-10-16T01:32:21;16.10;;;14.43;;
16401;SDS011;8310;44.626;11.176;2022-10-16T01:34:57;15.77;;;13.98;;
16401;SDS011;8310;44.626;11.176;2022-10-16T01:37:29;15.85;;;14.25;;
16401;SDS011;8310;44.626;11.176;2022-10-16T01:40:02;16.95;;;14.00;;
16401;SDS011;8310;44.626;11.176;2022-10-16T01:42:38;14.93;;;13.13;;
16401;SDS011;8310;44.626;11.176;2022-10-16T01:45:10;14.48;;;12.98;;
16401;SDS011;8310;44.626;11.176;2022-10-16T01:47:40;16.15;;;13.27;;
16401;SDS011;8310;44.626;11.176;2022-10-16T01:50:09;13.23;;;11.82;;
16401;SDS011;8310;44.626;11.176;2022-10-16T01:52:37;13.40;;;10.88;;
16401;SDS011;8310;44.626;11.176;2022-10-16T01:55:08;12.77;;;11.20;;
16401;SDS011;8310;44.626;11.176;2022-10-16T01:57:41;12.45;;;11.27;;
16401;SDS011;8310;44.626;11.176;2022-10-16T02:00:13;11.57;;;10.38;;
16401;SDS011;8310;44.626;11.176;2022-10-16T02:02:44;15.82;;;12.32;;
16401;SDS011;8310;44.626;11.176;2022-10-16T02:05:15;12.35;;;11.15;;
16401;SDS011;8310;44.626;11.176;2022-10-16T02:07:47;13.07;;;11.07;;
16401;SDS011;8310;44.626;11.176;2022-10-16T02:10:15;13.98;;;11.52;;
16401;SDS011;8310;44.626;11.176;2022-10-16T02:12:45;12.68;;;11.25;;
16401;SDS011;8310;44.626;11.176;2022-10-16T02:15:18;13.10;;;11.73;;
16401;SDS011;8310;44.626;11.176;2022-10-16T02:17:45;14.02;;;12.43;;
16401;SDS011;8310;44.626;11.176;2022-10-16T02:20:13;14.57;;;12.98;;
16401;SDS011;8310;44.626;11.176;2022-10-16T02:22:42;15.27;;;13.68;;
16401;SDS011;8310;44.626;11.176;2022-10-16T02:25:15;16.05;;;13.23;;
16401;SDS011;8310;44.626;11.176;2022-10-16T02:27:50;13.77;;;12.40;;
16401;SDS011;8310;44.626;11.176;2022-10-16T02:30:24;14.70;;;13.02;;
16401;SDS011;8310;44.626;11.176;2022-10-16T02:32:55;16.05;;;12.95;;
16401;SDS011;8310;44.626;11.176;2022-10-16T02:35:25;14.45;;;12.85;;
16401;SDS011;8310;44.626;11.176;2022-10-16T02:37:53;14.32;;;12.70;;
16401;SDS011;8310;44.626;11.176;2022-10-16T02:40:21;14.50;;;13.00;;
16401;SDS011;8310;44.626;11.176;2022-10-16T02:42:52;13.93;;;12.13;;
16401;SDS011;8310;44.626;11.176;2022-10-16T02:45:22;15.15;;;12.88;;
16401;SDS011;8310;44.626;11.176;2022-10-16T02:47:50;14.40;;;13.02;;
16401;SDS011;8310;44.626;11.176;2022-10-16T02:50:18;15.65;;;12.75;;
16401;SDS011;8310;44.626;11.176;2022-10-16T02:52:46;13.32;;;11.85;;
16401;SDS011;8310;44.626;11.176;2022-10-16T02:55:13;14.13;;;12.63;;
16401;SDS011;8310;44.626;11.176;2022-10-16T02:57:40;13.75;;;12.35;;
16401;SDS011;8310;44.626;11.176;2022-10-16T03:00:12;16.25;;;13.18;;
16401;SDS011;8310;44.626;11.176;2022-10-16T03:02:41;15.48;;;13.27;;
16401;SDS011;8310;44.626;11.176;2022-10-16T03:05:08;13.95;;;12.30;;
16401;SDS011;8310;44.626;11.176;2022-10-16T03:07:36;14.55;;;13.05;;
16401;SDS011;8310;44.626;11.176;2022-10-16T03:10:04;15.73;;;12.70;;
16401;SDS011;8310;44.626;11.176;2022-10-16T03:12:32;15.30;;;12.73;;
16401;SDS011;8310;44.626;11.176;2022-10-16T03:15:00;15.70;;;13.75;;
16401;SDS011;8310;44.626;11.176;2022-10-16T03:17:29;16.42;;;14.68;;
16401;SDS011;8310;44.626;11.176;2022-10-16T03:19:57;14.73;;;13.23;;
16401;SDS011;8310;44.626;11.176;2022-10-16T03:22:24;14.82;;;13.18;;
16401;SDS011;8310;44.626;11.176;2022-10-16T03:24:52;14.18;;;12.70;;
16401;SDS011;8310;44.626;11.176;2022-10-16T03:27:20;18.20;;;13.57;;
16401;SDS011;8310;44.626;11.176;2022-10-16T03:29:47;14.38;;;12.93;;
16401;SDS011;8310;44.626;11.176;2022-10-16T03:32:15;15.30;;;13.25;;
16401;SDS011;8310;44.626;11.176;2022-10-16T03:34:44;14.25;;;12.75;;
16401;SDS011;8310;44.626;11.176;2022-10-16T03:37:13;14.27;;;12.77;;
16401;SDS011;8310;44.626;11.176;2022-10-16T03:39:40;14.48;;;13.07;;
16401;SDS011;8310;44.626;11.176;2022-10-16T03:42:08;14.55;;;12.95;;
16401;SDS011;8310;44.626;11.176;2022-10-16T03:44:35;14.75;;;12.73;;
16401;SDS011;8310;44.626;11.176;2022-10-16T03:47:03;14.40;;;12.50;;
16401;SDS011;8310;44.626;11.176;2022-10-16T03:49:35;14.25;;;12.75;;
16401;SDS011;8310;44.626;11.176;2022-10-16T03:52:04;14.18;;;12.10;;
16401;SDS011;8310;44.626;11.176;2022-10-16T03:54:31;16.13;;;13.20;;
16401;SDS011;8310;44.626;11.176;2022-10-16T03:56:59;15.30;;;13.57;;
16401;SDS011;8310;44.626;11.176;2022-10-16T03:59:26;12.60;;;11.40;;
16401;SDS011;8310;44.626;11.176;2022-10-16T04:01:55;14.48;;;12.50;;
16401;SDS011;8310;44.626;11.176;2022-10-16T04:04:22;13.95;;;12.55;;
16401;SDS011;8310;44.626;11.176;2022-10-16T04:06:50;14.20;;;12.30;;
16401;SDS011;8310;44.626;11.176;2022-10-16T04:09:20;15.95;;;12.60;;
16401;SDS011;8310;44.626;11.176;2022-10-16T04:11:48;14.50;;;12.98;;
16401;SDS011;8310;44.626;11.176;2022-10-16T04:14:17;15.13;;;12.32;;
16401;SDS011;8310;44.626;11.176;2022-10-16T04:16:44;13.50;;;12.10;;
16401;SDS011;8310;44.626;11.176;2022-10-16T04:19:12;14.82;;;12.45;;
16401;SDS011;8310;44.626;11.176;2022-10-16T04:21:39;14.40;;;12.02;;
16401;SDS011;8310;44.626;11.176;2022-10-16T04:24:07;15.43;;;13.18;;
16401;SDS011;8310;44.626;11.176;2022-10-16T04:26:38;14.43;;;12.73;;
16401;SDS011;8310;44.626;11.176;2022-10-16T04:29:05;13.93;;;12.18;;
16401;SDS011;8310;44.626;11.176;2022-10-16T04:31:33;13.70;;;12.30;;
16401;SDS011;8310;44.626;11.176;2022-10-16T04:34:00;14.82;;;12.98;;
16401;SDS011;8310;44.626;11.176;2022-10-16T04:36:28;14.57;;;13.07;;
16401;SDS011;8310;44.626;11.176;2022-10-16T04:38:55;15.40;;;13.35;;
16401;SDS011;8310;44.626;11.176;2022-10-16T04:41:23;13.18;;;11.88;;
16401;SDS011;8310;44.626;11.176;2022-10-16T04:43:52;13.00;;;11.63;;
16401;SDS011;8310;44.626;11.176;2022-10-16T04:46:19;14.93;;;12.18;;
16401;SDS011;8310;44.626;11.176;2022-10-16T04:48:47;15.02;;;12.85;;
16401;SDS011;8310;44.626;11.176;2022-10-16T04:51:15;13.55;;;12.25;;
16401;SDS011;8310;44.626;11.176;2022-10-16T04:53:42;13.32;;;11.90;;
16401;SDS011;8310;44.626;11.176;2022-10-16T04:56:09;12.38;;;10.90;;
16401;SDS011;8310;44.626;11.176;2022-10-16T04:58:36;13.52;;;12.05;;
16401;SDS011;8310;44.626;11.176;2022-10-16T05:01:05;12.57;;;11.25;;
16401;SDS011;8310;44.626;11.176;2022-10-16T05:03:33;12.88;;;11.43;;
16401;SDS011;8310;44.626;11.176;2022-10-16T05:06:01;13.15;;;11.00;;
16401;SDS011;8310;44.626;11.176;2022-10-16T05:08:29;13.63;;;12.30;;
16401;SDS011;8310;44.626;11.176;2022-10-16T05:10:56;12.70;;;11.30;;
16401;SDS011;8310;44.626;11.176;2022-10-16T05:13:23;13.18;;;11.77;;
16401;SDS011;8310;44.626;11.176;2022-10-16T05:15:52;15.02;;;11.65;;
16401;SDS011;8310;44.626;11.176;2022-10-16T05:18:20;12.93;;;11.32;;
16401;SDS011;8310;44.626;11.176;2022-10-16T05:20:48;13.90;;;11.50;;
16401;SDS011;8310;44.626;11.176;2022-10-16T05:23:15;13.20;;;11.90;;
16401;SDS011;8310;44.626;11.176;2022-10-16T05:25:43;13.75;;;12.35;;
16401;SDS011;8310;44.626;11.176;2022-10-16T05:28:18;14.82;;;12.27;;
16401;SDS011;8310;44.626;11.176;2022-10-16T05:30:45;15.18;;;12.38;;
16401;SDS011;8310;44.626;11.176;2022-10-16T05:33:13;13.52;;;12.23;;
16401;SDS011;8310;44.626;11.176;2022-10-16T05:35:42;13.27;;;11.98;;
16401;SDS011;8310;44.626;11.176;2022-10-16T05:38:10;13.70;;;12.25;;
16401;SDS011;8310;44.626;11.176;2022-10-16T05:40:37;14.50;;;12.95;;
16401;SDS011;8310;44.626;11.176;2022-10-16T05:43:05;13.48;;;12.05;;
16401;SDS011;8310;44.626;11.176;2022-10-16T05:45:32;13.20;;;11.85;;
16401;SDS011;8310;44.626;11.176;2022-10-16T05:48:00;14.50;;;11.80;;
16401;SDS011;8310;44.626;11.176;2022-10-16T05:50:28;13.10;;;11.68;;
16401;SDS011;8310;44.626;11.176;2022-10-16T05:52:57;12.88;;;11.68;;
16401;SDS011;8310;44.626;11.176;2022-10-16T05:55:24;14.35;;;12.88;;
16401;SDS011;8310;44.626;11.176;2022-10-16T05:57:53;14.70;;;12.20;;
16401;SDS011;8310;44.626;11.176;2022-10-16T06:00:21;12.13;;;11.00;;
16401;SDS011;8310;44.626;11.176;2022-10-16T06:02:48;12.32;;;11.13;;
16401;SDS011;8310;44.626;11.176;2022-10-16T06:05:16;12.85;;;11.65;;
16401;SDS011;8310;44.626;11.176;2022-10-16T06:07:44;14.02;;;11.45;;
16401;SDS011;8310;44.626;11.176;2022-10-16T06:10:13;13.75;;;12.10;;
16401;SDS011;8310;44.626;11.176;2022-10-16T06:12:41;14.65;;;11.43;;
16401;SDS011;8310;44.626;11.176;2022-10-16T06:15:09;12.85;;;11.55;;
16401;SDS011;8310;44.626;11.176;2022-10-16T06:17:37;12.25;;;11.00;;
16401;SDS011;8310;44.626;11.176;2022-10-16T06:20:05;13.13;;;11.82;;
16401;SDS011;8310;44.626;11.176;2022-10-16T06:22:33;15.27;;;11.98;;
16401;SDS011;8310;44.626;11.176;2022-10-16T06:25:00;12.52;;;11.00;;
16401;SDS011;8310;44.626;11.176;2022-10-16T06:27:29;13.90;;;10.68;;
16401;SDS011;8310;44.626;11.176;2022-10-16T06:29:57;12.57;;;11.23;;
16401;SDS011;8310;44.626;11.176;2022-10-16T06:32:25;12.60;;;10.52;;
16401;SDS011;8310;44.626;11.176;2022-10-16T06:34:53;13.20;;;10.50;;
16401;SDS011;8310;44.626;11.176;2022-10-16T06:37:21;11.77;;;10.57;;
16401;SDS011;8310;44.626;11.176;2022-10-16T06:39:48;12.10;;;10.70;;
16401;SDS011;8310;44.626;11.176;2022-10-16T06:42:17;14.65;;;11.23;;
16401;SDS011;8310;44.626;11.176;2022-10-16T06:44:46;11.15;;;10.05;;
16401;SDS011;8310;44.626;11.176;2022-10-16T06:47:14;10.43;;;9.43;;
16401;SDS011;8310;44.626;11.176;2022-10-16T06:49:41;11.38;;;10.07;;
16401;SDS011;8310;44.626;11.176;2022-10-16T06:52:09;11.63;;;10.40;;
16401;SDS011;8310;44.626;11.176;2022-10-16T06:54:36;10.73;;;9.68;;
16401;SDS011;8310;44.626;11.176;2022-10-16T06:57:04;9.88;;;8.93;;
16401;SDS011;8310;44.626;11.176;2022-10-16T06:59:31;10.70;;;9.68;;
16401;SDS011;8310;44.626;11.176;2022-10-16T07:02:01;9.77;;;8.82;;
16401;SDS011;8310;44.626;11.176;2022-10-16T07:04:28;11.50;;;10.40;;
16401;SDS011;8310;44.626;11.176;2022-10-16T07:06:55;10.75;;;9.75;;
16401;SDS011;8310;44.626;11.176;2022-10-16T07:09:23;10.65;;;9.25;;
16401;SDS011;8310;44.626;11.176;2022-10-16T07:11:50;12.73;;;8.95;;
16401;SDS011;8310;44.626;11.176;2022-10-16T07:14:18;11.25;;;8.88;;
16401;SDS011;8310;44.626;11.176;2022-10-16T07:16:47;13.43;;;10.32;;
16401;SDS011;8310;44.626;11.176;2022-10-16T07:19:16;13.50;;;10.73;;
16401;SDS011;8310;44.626;11.176;2022-10-16T07:21:44;13.23;;;11.70;;
16401;SDS011;8310;44.626;11.176;2022-10-16T07:24:12;14.07;;;11.63;;
16401;SDS011;8310;44.626;11.176;2022-10-16T07:26:41;13.45;;;11.68;;
16401;SDS011;8310;44.626;11.176;2022-10-16T07:29:11;15.10;;;13.60;;
16401;SDS011;8310;44.626;11.176;2022-10-16T07:31:40;16.95;;;14.75;;
16401;SDS011;8310;44.626;11.176;2022-10-16T07:34:09;18.08;;;15.98;;
16401;SDS011;8310;44.626;11.176;2022-10-16T07:36:39;19.67;;;16.67;;
16401;SDS011;8310;44.626;11.176;2022-10-16T07:39:07;19.05;;;16.38;;
16401;SDS011;8310;44.626;11.176;2022-10-16T07:41:35;19.80;;;16.30;;
16401;SDS011;8310;44.626;11.176;2022-10-16T07:44:03;19.17;;;17.15;;
16401;SDS011;8310;44.626;11.176;2022-10-16T07:46:31;21.58;;;16.50;;
16401;SDS011;8310;44.626;11.176;2022-10-16T07:49:02;20.13;;;17.80;;
16401;SDS011;8310;44.626;11.176;2022-10-16T07:51:31;23.85;;;17.92;;
16401;SDS011;8310;44.626;11.176;2022-10-16T07:54:00;22.25;;;18.05;;
16401;SDS011;8310;44.626;11.176;2022-10-16T07:56:29;21.70;;;18.30;;
16401;SDS011;8310;44.626;11.176;2022-10-16T07:58:58;20.98;;;17.90;;
16401;SDS011;8310;44.626;11.176;2022-10-16T08:01:25;29.60;;;18.50;;
16401;SDS011;8310;44.626;11.176;2022-10-16T08:03:54;19.80;;;17.70;;
16401;SDS011;8310;44.626;11.176;2022-10-16T08:06:21;19.98;;;17.88;;
16401;SDS011;8310;44.626;11.176;2022-10-16T08:08:49;21.60;;;19.00;;
16401;SDS011;8310;44.626;11.176;2022-10-16T08:11:18;23.30;;;18.95;;
16401;SDS011;8310;44.626;11.176;2022-10-16T08:13:46;23.02;;;18.15;;
16401;SDS011;8310;44.626;11.176;2022-10-16T08:16:14;23.65;;;17.65;;
16401;SDS011;8310;44.626;11.176;2022-10-16T08:18:42;24.02;;;19.35;;
16401;SDS011;8310;44.626;11.176;2022-10-16T08:21:12;21.42;;;18.42;;
16401;SDS011;8310;44.626;11.176;2022-10-16T08:23:41;22.90;;;18.65;;
16401;SDS011;8310;44.626;11.176;2022-10-16T08:26:09;23.80;;;20.15;;
16401;SDS011;8310;44.626;11.176;2022-10-16T08:28:38;22.88;;;17.88;;
16401;SDS011;8310;44.626;11.176;2022-10-16T08:31:07;21.83;;;19.00;;
16401;SDS011;8310;44.626;11.176;2022-10-16T08:33:35;21.23;;;18.92;;
16401;SDS011;8310;44.626;11.176;2022-10-16T08:36:03;23.25;;;19.52;;
16401;SDS011;8310;44.626;11.176;2022-10-16T08:38:32;25.17;;;20.70;;
16401;SDS011;8310;44.626;11.176;2022-10-16T08:41:04;28.08;;;22.83;;
16401;SDS011;8310;44.626;11.176;2022-10-16T08:43:54;28.17;;;22.42;;
16401;SDS011;8310;44.626;11.176;2022-10-16T08:46:34;30.63;;;24.58;;
16401;SDS011;8310;44.626;11.176;2022-10-16T08:49:10;33.03;;;24.65;;
16401;SDS011;8310;44.626;11.176;2022-10-16T08:51:40;38.92;;;29.27;;
16401;SDS011;8310;44.626;11.176;2022-10-16T08:54:13;37.72;;;29.17;;
16401;SDS011;8310;44.626;11.176;2022-10-16T08:56:50;31.73;;;26.58;;
16401;SDS011;8310;44.626;11.176;2022-10-16T08:59:18;36.45;;;28.83;;
16401;SDS011;8310;44.626;11.176;2022-10-16T09:01:49;43.67;;;34.17;;
16401;SDS011;8310;44.626;11.176;2022-10-16T09:07:19;41.75;;;32.15;;
16401;SDS011;8310;44.626;11.176;2022-10-16T09:09:57;42.45;;;31.63;;
16401;SDS011;8310;44.626;11.176;2022-10-16T09:12:32;74.20;;;34.90;;
16401;SDS011;8310;44.626;11.176;2022-10-16T09:15:11;54.70;;;34.63;;
16401;SDS011;8310;44.626;11.176;2022-10-16T09:17:50;41.65;;;32.83;;
16401;SDS011;8310;44.626;11.176;2022-10-16T09:20:26;43.05;;;33.63;;
16401;SDS011;8310;44.626;11.176;2022-10-16T09:23:04;41.25;;;33.15;;
16401;SDS011;8310;44.626;11.176;2022-10-16T09:25:43;46.80;;;34.42;;
16401;SDS011;8310;44.626;11.176;2022-10-16T09:28:14;44.25;;;33.40;;
16401;SDS011;8310;44.626;11.176;2022-10-16T09:30:44;43.70;;;34.13;;
16401;SDS011;8310;44.626;11.176;2022-10-16T09:33:13;44.70;;;33.17;;
16401;SDS011;8310;44.626;11.176;2022-10-16T09:35:43;45.55;;;33.08;;
16401;SDS011;8310;44.626;11.176;2022-10-16T09:38:20;44.80;;;34.03;;
16401;SDS011;8310;44.626;11.176;2022-10-16T09:40:49;43.47;;;33.63;;
16401;SDS011;8310;44.626;11.176;2022-10-16T09:43:20;44.38;;;33.30;;
16401;SDS011;8310;44.626;11.176;2022-10-16T09:45:55;42.03;;;34.15;;
16401;SDS011;8310;44.626;11.176;2022-10-16T09:48:25;43.53;;;34.70;;
16401;SDS011;8310;44.626;11.176;2022-10-16T09:50:55;43.22;;;33.45;;
16401;SDS011;8310;44.626;11.176;2022-10-16T09:53:24;42.33;;;34.35;;
16401;SDS011;8310;44.626;11.176;2022-10-16T09:56:04;43.22;;;34.40;;
16401;SDS011;8310;44.626;11.176;2022-10-16T09:58:32;46.28;;;35.20;;
16401;SDS011;8310;44.626;11.176;2022-10-16T10:01:02;48.58;;;35.25;;
16401;SDS011;8310;44.626;11.176;2022-10-16T10:03:33;45.47;;;35.10;;
16401;SDS011;8310;44.626;11.176;2022-10-16T10:06:05;41.67;;;33.85;;
16401;SDS011;8310;44.626;11.176;2022-10-16T10:08:59;45.88;;;32.90;;
16401;SDS011;8310;44.626;11.176;2022-10-16T10:11:41;44.92;;;33.28;;
16401;SDS011;8310;44.626;11.176;2022-10-16T10:14:15;41.55;;;33.78;;
16401;SDS011;8310;44.626;11.176;2022-10-16T10:16:50;48.33;;;32.42;;
16401;SDS011;8310;44.626;11.176;2022-10-16T10:19:19;43.92;;;35.00;;
16401;SDS011;8310;44.626;11.176;2022-10-16T10:21:48;41.55;;;32.50;;
16401;SDS011;8310;44.626;11.176;2022-10-16T10:24:17;42.67;;;34.10;;
16401;SDS011;8310;44.626;11.176;2022-10-16T10:26:51;37.85;;;30.10;;
16401;SDS011;8310;44.626;11.176;2022-10-16T10:29:29;36.70;;;28.02;;
16401;SDS011;8310;44.626;11.176;2022-10-16T10:32:10;37.25;;;29.17;;
16401;SDS011;8310;44.626;11.176;2022-10-16T10:34:52;33.00;;;25.77;;
16401;SDS011;8310;44.626;11.176;2022-10-16T10:40:34;29.73;;;23.90;;
16401;SDS011;8310;44.626;11.176;2022-10-16T10:43:17;29.20;;;23.58;;
16401;SDS011;8310;44.626;11.176;2022-10-16T10:45:57;33.30;;;25.15;;
16401;SDS011;8310;44.626;11.176;2022-10-16T10:51:32;24.92;;;21.40;;
16401;SDS011;8310;44.626;11.176;2022-10-16T10:54:13;26.75;;;21.38;;
16401;SDS011;8310;44.626;11.176;2022-10-16T10:56:48;27.42;;;23.10;;
16401;SDS011;8310;44.626;11.176;2022-10-16T10:59:28;30.67;;;24.75;;
16401;SDS011;8310;44.626;11.176;2022-10-16T11:02:17;26.48;;;22.77;;
16401;SDS011;8310;44.626;11.176;2022-10-16T11:07:55;26.13;;;20.67;;
16401;SDS011;8310;44.626;11.176;2022-10-16T11:10:27;24.13;;;19.67;;
16401;SDS011;8310;44.626;11.176;2022-10-16T11:13:03;25.50;;;20.90;;
16401;SDS011;8310;44.626;11.176;2022-10-16T11:15:37;24.25;;;21.15;;
16401;SDS011;8310;44.626;11.176;2022-10-16T11:18:08;25.10;;;20.92;;
16401;SDS011;8310;44.626;11.176;2022-10-16T11:20:45;25.13;;;19.83;;
16401;SDS011;8310;44.626;11.176;2022-10-16T11:23:18;23.10;;;18.95;;
16401;SDS011;8310;44.626;11.176;2022-10-16T11:25:50;24.77;;;19.08;;
16401;SDS011;8310;44.626;11.176;2022-10-16T11:28:19;21.08;;;17.60;;
16401;SDS011;8310;44.626;11.176;2022-10-16T11:30:49;21.80;;;16.88;;
16401;SDS011;8310;44.626;11.176;2022-10-16T11:33:23;18.48;;;15.63;;
16401;SDS011;8310;44.626;11.176;2022-10-16T11:36:01;21.50;;;19.20;;
16401;SDS011;8310;44.626;11.176;2022-10-16T11:38:37;20.20;;;17.85;;
16401;SDS011;8310;44.626;11.176;2022-10-16T11:41:13;21.92;;;19.55;;
16401;SDS011;8310;44.626;11.176;2022-10-16T11:43:51;22.30;;;19.25;;
16401;SDS011;8310;44.626;11.176;2022-10-16T11:46:25;19.02;;;16.83;;
16401;SDS011;8310;44.626;11.176;2022-10-16T11:48:55;23.75;;;18.58;;
16401;SDS011;8310;44.626;11.176;2022-10-16T11:51:33;19.92;;;17.63;;
16401;SDS011;8310;44.626;11.176;2022-10-16T11:54:08;19.52;;;17.27;;
16401;SDS011;8310;44.626;11.176;2022-10-16T11:56:48;17.15;;;15.30;;
16401;SDS011;8310;44.626;11.176;2022-10-16T11:59:21;17.80;;;15.70;;
16401;SDS011;8310;44.626;11.176;2022-10-16T12:01:57;17.95;;;15.23;;
16401;SDS011;8310;44.626;11.176;2022-10-16T12:04:48;16.92;;;15.13;;
16401;SDS011;8310;44.626;11.176;2022-10-16T12:07:26;17.05;;;14.75;;
16401;SDS011;8310;44.626;11.176;2022-10-16T12:10:09;16.17;;;14.18;;
16401;SDS011;8310;44.626;11.176;2022-10-16T12:12:38;18.38;;;14.90;;
16401;SDS011;8310;44.626;11.176;2022-10-16T12:15:19;14.60;;;12.85;;
16401;SDS011;8310;44.626;11.176;2022-10-16T12:17:48;13.73;;;12.32;;
16401;SDS011;8310;44.626;11.176;2022-10-16T12:20:21;15.90;;;13.80;;
16401;SDS011;8310;44.626;11.176;2022-10-16T12:22:54;13.63;;;12.27;;
16401;SDS011;8310;44.626;11.176;2022-10-16T12:25:24;14.30;;;12.55;;
16401;SDS011;8310;44.626;11.176;2022-10-16T12:27:54;15.07;;;12.77;;
16401;SDS011;8310;44.626;11.176;2022-10-16T12:30:27;16.13;;;13.70;;
16401;SDS011;8310;44.626;11.176;2022-10-16T12:32:57;15.07;;;13.65;;
16401;SDS011;8310;44.626;11.176;2022-10-16T12:35:27;14.43;;;12.98;;
16401;SDS011;8310;44.626;11.176;2022-10-16T12:38:06;12.88;;;11.52;;
16401;SDS011;8310;44.626;11.176;2022-10-16T12:40:40;14.48;;;13.15;;
16401;SDS011;8310;44.626;11.176;2022-10-16T12:43:23;14.40;;;12.48;;
16401;SDS011;8310;44.626;11.176;2022-10-16T12:46:00;15.57;;;12.88;;
16401;SDS011;8310;44.626;11.176;2022-10-16T12:48:28;16.27;;;12.95;;
16401;SDS011;8310;44.626;11.176;2022-10-16T12:50:56;14.18;;;11.98;;
16401;SDS011;8310;44.626;11.176;2022-10-16T12:53:37;13.18;;;11.88;;
16401;SDS011;8310;44.626;11.176;2022-10-16T12:56:09;16.48;;;12.50;;
16401;SDS011;8310;44.626;11.176;2022-10-16T12:58:57;14.52;;;13.07;;
16401;SDS011;8310;44.626;11.176;2022-10-16T13:01:39;16.05;;;14.32;;
16401;SDS011;8310;44.626;11.176;2022-10-16T13:04:18;15.55;;;13.90;;
16401;SDS011;8310;44.626;11.176;2022-10-16T13:06:59;14.07;;;12.10;;
16401;SDS011;8310;44.626;11.176;2022-10-16T13:09:42;13.52;;;12.20;;
16401;SDS011;8310;44.626;11.176;2022-10-16T13:15:50;13.90;;;10.93;;
16401;SDS011;8310;44.626;11.176;2022-10-16T13:18:28;11.75;;;10.57;;
16401;SDS011;8310;44.626;11.176;2022-10-16T13:21:05;10.57;;;9.50;;
16401;SDS011;8310;44.626;11.176;2022-10-16T13:23:44;10.23;;;9.23;;
16401;SDS011;8310;44.626;11.176;2022-10-16T13:26:22;11.85;;;9.23;;
16401;SDS011;8310;44.626;11.176;2022-10-16T13:28:58;10.15;;;8.82;;
16401;SDS011;8310;44.626;11.176;2022-10-16T13:31:26;10.30;;;9.30;;
16401;SDS011;8310;44.626;11.176;2022-10-16T13:33:55;12.30;;;11.10;;
16401;SDS011;8310;44.626;11.176;2022-10-16T13:36:24;9.85;;;8.52;;
16401;SDS011;8310;44.626;11.176;2022-10-16T13:39:01;9.75;;;8.75;;
16401;SDS011;8310;44.626;11.176;2022-10-16T13:41:39;11.05;;;9.90;;
16401;SDS011;8310;44.626;11.176;2022-10-16T13:44:11;10.82;;;9.65;;
16401;SDS011;8310;44.626;11.176;2022-10-16T13:46:42;10.18;;;9.27;;
16401;SDS011;8310;44.626;11.176;2022-10-16T13:49:12;9.63;;;8.82;;
16401;SDS011;8310;44.626;11.176;2022-10-16T13:51:42;11.38;;;9.73;;
16401;SDS011;8310;44.626;11.176;2022-10-16T13:54:21;9.45;;;8.60;;
16401;SDS011;8310;44.626;11.176;2022-10-16T13:56:51;8.68;;;7.78;;
16401;SDS011;8310;44.626;11.176;2022-10-16T13:59:22;8.48;;;7.57;;
16401;SDS011;8310;44.626;11.176;2022-10-16T14:01:51;9.88;;;8.95;;
16401;SDS011;8310;44.626;11.176;2022-10-16T14:04:21;8.65;;;7.95;;
16401;SDS011;8310;44.626;11.176;2022-10-16T14:06:49;8.52;;;7.70;;
16401;SDS011;8310;44.626;11.176;2022-10-16T14:09:22;9.30;;;8.30;;
16401;SDS011;8310;44.626;11.176;2022-10-16T14:11:53;8.75;;;7.95;;
16401;SDS011;8310;44.626;11.176;2022-10-16T14:14:22;9.20;;;8.32;;
16401;SDS011;8310;44.626;11.176;2022-10-16T14:16:51;8.38;;;7.55;;
16401;SDS011;8310;44.626;11.176;2022-10-16T14:19:21;8.93;;;8.07;;
16401;SDS011;8310;44.626;11.176;2022-10-16T14:21:50;8.65;;;7.88;;
16401;SDS011;8310;44.626;11.176;2022-10-16T14:24:24;10.80;;;8.48;;
16401;SDS011;8310;44.626;11.176;2022-10-16T14:26:55;8.82;;;7.93;;
16401;SDS011;8310;44.626;11.176;2022-10-16T14:29:24;8.18;;;7.43;;
16401;SDS011;8310;44.626;11.176;2022-10-16T14:31:55;11.85;;;7.93;;
16401;SDS011;8310;44.626;11.176;2022-10-16T14:34:25;8.93;;;8.18;;
16401;SDS011;8310;44.626;11.176;2022-10-16T14:36:54;8.45;;;7.57;;
16401;SDS011;8310;44.626;11.176;2022-10-16T14:39:22;8.82;;;8.02;;
16401;SDS011;8310;44.626;11.176;2022-10-16T14:41:52;8.50;;;7.70;;
16401;SDS011;8310;44.626;11.176;2022-10-16T14:44:27;8.00;;;7.25;;
16401;SDS011;8310;44.626;11.176;2022-10-16T14:46:58;10.18;;;7.70;;
16401;SDS011;8310;44.626;11.176;2022-10-16T14:49:33;10.65;;;8.10;;
16401;SDS011;8310;44.626;11.176;2022-10-16T14:52:00;10.07;;;8.80;;
16401;SDS011;8310;44.626;11.176;2022-10-16T14:54:31;8.55;;;7.70;;
16401;SDS011;8310;44.626;11.176;2022-10-16T14:57:00;9.35;;;8.55;;
16401;SDS011;8310;44.626;11.176;2022-10-16T14:59:28;8.88;;;8.02;;
16401;SDS011;8310;44.626;11.176;2022-10-16T15:02:00;8.90;;;8.10;;